createdAt,value
2022-12-17T00:01:42.308Z,32.40
2022-12-17T00:04:33.453Z,28.88
2022-12-17T00:07:24.146Z,31.42
2022-12-17T00:10:14.336Z,36.47
2022-12-17T00:13:05.915Z,39.70
2022-12-17T00:15:56.653Z,29.40
2022-12-17T00:21:58.826Z,28.90
2022-12-17T00:24:49.141Z,30.17
2022-12-17T00:27:40.309Z,28.52
2022-12-17T00:30:30.646Z,24.98
2022-12-17T00:33:21.788Z,25.45
2022-12-17T00:36:14.356Z,30.35
2022-12-17T00:39:05.409Z,26.33
2022-12-17T00:41:55.745Z,27.67
2022-12-17T00:44:47.852Z,28.38
2022-12-17T00:47:38.108Z,28.80
2022-12-17T00:50:29.792Z,29.83
2022-12-17T00:53:21.013Z,30.73
2022-12-17T00:56:12.215Z,26.60
2022-12-17T00:59:03.096Z,31.15
2022-12-17T01:01:53.471Z,30.45
2022-12-17T01:04:45.018Z,29.05
2022-12-17T01:07:35.970Z,28.90
2022-12-17T01:10:27.355Z,28.33
2022-12-17T01:13:18.245Z,27.60
2022-12-17T01:16:11.176Z,25.25
2022-12-17T01:19:02.436Z,27.10
2022-12-17T01:21:52.658Z,28.73
2022-12-17T01:24:44.406Z,30.08
2022-12-17T01:27:34.618Z,27.48
2022-12-17T01:30:26.967Z,27.80
2022-12-17T01:33:23.510Z,26.63
2022-12-17T01:36:18.635Z,28.50
2022-12-17T01:39:09.370Z,25.85
2022-12-17T01:42:00.205Z,26.23
2022-12-17T01:45:06.661Z,22.80
2022-12-17T01:48:17.062Z,23.48
2022-12-17T01:51:15.525Z,23.70
2022-12-17T01:54:09.590Z,26.05
2022-12-17T01:57:02.705Z,25.02
2022-12-17T02:00:27.034Z,23.23
2022-12-17T02:03:19.344Z,24.83
2022-12-17T02:06:24.473Z,22.97
2022-12-17T02:09:34.301Z,19.42
2022-12-17T02:12:47.127Z,22.20
2022-12-17T02:15:44.780Z,25.65
2022-12-17T02:18:56.670Z,24.58
2022-12-17T02:21:50.190Z,21.20
2022-12-17T02:24:52.940Z,18.90
2022-12-17T02:27:44.797Z,23.10
2022-12-17T02:30:37.935Z,25.67
2022-12-17T02:33:30.750Z,24.08
2022-12-17T02:36:26.233Z,30.67
2022-12-17T02:39:17.080Z,34.42
2022-12-17T02:42:13.419Z,40.97
2022-12-17T02:45:04.804Z,37.08
2022-12-17T02:48:03.008Z,32.58
2022-12-17T02:50:53.647Z,18.53
2022-12-17T02:53:44.811Z,18.33
2022-12-17T02:56:36.324Z,20.30
2022-12-17T02:59:27.699Z,19.95
2022-12-17T03:02:19.696Z,16.48
2022-12-17T03:05:43.582Z,18.10
2022-12-17T03:08:29.729Z,15.48
2022-12-17T03:11:21.528Z,23.00
2022-12-17T03:14:11.872Z,17.35
2022-12-17T03:17:05.593Z,16.65
2022-12-17T03:19:55.853Z,15.60
2022-12-17T03:22:46.997Z,16.92
2022-12-17T03:25:37.814Z,14.45
2022-12-17T03:28:30.632Z,16.77
2022-12-17T03:31:21.129Z,16.80
2022-12-17T03:34:12.886Z,14.67
2022-12-17T03:37:03.736Z,14.50
2022-12-17T03:39:54.376Z,14.15
2022-12-17T03:42:45.676Z,14.73
2022-12-17T03:45:37.371Z,14.98
2022-12-17T03:48:32.308Z,12.20
2022-12-17T03:51:24.080Z,12.75
2022-12-17T03:54:14.893Z,15.02
2022-12-17T03:57:05.532Z,14.35
2022-12-17T03:59:56.579Z,11.68
2022-12-17T04:03:00.721Z,14.13
2022-12-17T04:05:52.078Z,15.27
2022-12-17T04:08:42.284Z,13.38
2022-12-17T04:11:32.931Z,15.18
2022-12-17T04:14:23.265Z,14.55
2022-12-17T04:17:13.970Z,17.23
2022-12-17T04:20:04.240Z,20.10
2022-12-17T04:22:55.386Z,21.42
2022-12-17T04:25:45.681Z,20.00
2022-12-17T04:28:36.825Z,22.80
2022-12-17T04:31:27.552Z,14.23
2022-12-17T04:34:18.768Z,18.58
2022-12-17T04:37:08.943Z,16.73
2022-12-17T04:39:59.868Z,19.30
2022-12-17T04:42:50.113Z,13.10
2022-12-17T04:45:41.156Z,11.60
2022-12-17T04:48:31.405Z,11.10
2022-12-17T04:51:22.476Z,12.13
2022-12-17T04:54:12.694Z,15.70
2022-12-17T04:57:03.813Z,12.70
2022-12-17T04:59:54.563Z,11.87
2022-12-17T05:02:45.727Z,15.15
2022-12-17T05:05:36.078Z,13.18
2022-12-17T05:08:27.108Z,14.32
2022-12-17T05:11:25.136Z,14.90
2022-12-17T05:14:16.277Z,12.60
2022-12-17T05:17:06.503Z,16.63
2022-12-17T05:19:57.648Z,14.60
2022-12-17T05:22:48.558Z,14.38
2022-12-17T05:25:39.720Z,12.85
2022-12-17T05:28:29.958Z,13.80
2022-12-17T05:31:21.617Z,15.27
2022-12-17T05:34:12.842Z,12.63
2022-12-17T05:37:20.354Z,14.35
2022-12-17T05:40:12.856Z,14.60
2022-12-17T05:43:25.070Z,17.53
2022-12-17T05:46:15.911Z,15.88
2022-12-17T05:49:06.365Z,21.70
2022-12-17T05:51:57.529Z,22.90
2022-12-17T05:54:50.578Z,19.90
2022-12-17T05:57:41.852Z,14.93
2022-12-17T06:00:32.887Z,11.32
2022-12-17T06:03:24.710Z,13.77
2022-12-17T06:06:16.179Z,15.95
2022-12-17T06:09:07.326Z,15.70
2022-12-17T06:12:02.536Z,15.90
2022-12-17T06:14:54.261Z,14.02
2022-12-17T06:17:45.288Z,15.52
2022-12-17T06:20:36.469Z,16.65
2022-12-17T06:23:29.687Z,16.67
2022-12-17T06:26:20.319Z,27.40
2022-12-17T06:29:10.723Z,33.13
2022-12-17T06:32:02.389Z,21.15
2022-12-17T06:34:53.291Z,17.42
2022-12-17T06:37:44.872Z,17.52
2022-12-17T06:40:36.523Z,15.87
2022-12-17T06:43:27.770Z,15.18
2022-12-17T06:46:17.968Z,21.75
2022-12-17T06:49:09.076Z,16.13
2022-12-17T06:51:59.193Z,15.50
2022-12-17T06:54:50.140Z,17.97
2022-12-17T06:57:41.828Z,19.13
2022-12-17T07:00:35.481Z,18.75
2022-12-17T07:03:30.525Z,21.92
2022-12-17T07:06:21.706Z,18.58
2022-12-17T07:09:12.446Z,19.37
2022-12-17T07:12:02.996Z,19.40
2022-12-17T07:14:54.158Z,15.10
2022-12-17T07:17:47.284Z,18.17
2022-12-17T07:20:38.340Z,18.90
2022-12-17T07:23:29.061Z,16.17
2022-12-17T07:26:19.719Z,16.08
2022-12-17T07:29:10.591Z,16.92
2022-12-17T07:32:01.785Z,19.52
2022-12-17T07:34:52.710Z,17.40
2022-12-17T07:37:43.865Z,18.00
2022-12-17T07:40:34.966Z,16.15
2022-12-17T07:43:31.401Z,16.25
2022-12-17T07:46:22.023Z,17.38
2022-12-17T07:49:13.395Z,16.92
2022-12-17T07:52:04.407Z,14.50
2022-12-17T07:54:54.628Z,16.48
2022-12-17T07:57:45.972Z,17.00
2022-12-17T08:00:36.323Z,16.15
2022-12-17T08:03:29.125Z,15.10
2022-12-17T08:06:19.779Z,15.57
2022-12-17T08:09:09.982Z,18.08
2022-12-17T08:12:01.153Z,21.75
2022-12-17T08:14:51.339Z,26.95
2022-12-17T08:17:43.826Z,23.33
2022-12-17T08:20:34.851Z,19.20
2022-12-17T08:23:26.140Z,24.20
2022-12-17T08:26:16.382Z,23.60
2022-12-17T08:29:07.524Z,23.02
2022-12-17T08:31:57.870Z,19.00
2022-12-17T08:34:48.927Z,19.60
2022-12-17T08:37:39.345Z,18.73
2022-12-17T08:40:30.229Z,20.55
2022-12-17T08:43:20.444Z,18.80
2022-12-17T08:46:12.451Z,14.82
2022-12-17T08:49:03.108Z,18.97
2022-12-17T08:51:54.153Z,18.85
2022-12-17T08:54:44.628Z,22.40
2022-12-17T08:57:36.821Z,19.00
2022-12-17T09:00:28.565Z,26.60
2022-12-17T09:03:21.793Z,31.80
2022-12-17T09:06:12.654Z,28.65
2022-12-17T09:09:03.790Z,27.75
2022-12-17T09:11:55.735Z,26.88
2022-12-17T09:14:47.324Z,31.27
2022-12-17T09:17:38.972Z,28.47
2022-12-17T09:20:29.803Z,29.67
2022-12-17T09:23:20.963Z,28.58
2022-12-17T09:26:13.054Z,25.80
2022-12-17T09:29:04.115Z,29.90
2022-12-17T09:31:54.310Z,28.70
2022-12-17T09:37:56.471Z,28.33
2022-12-17T09:40:49.736Z,25.90
2022-12-17T09:44:03.045Z,29.08
2022-12-17T09:47:26.036Z,29.40
2022-12-17T09:50:20.134Z,27.67
2022-12-17T09:53:10.522Z,26.10
2022-12-17T09:56:10.713Z,30.98
2022-12-17T09:59:01.423Z,31.52
2022-12-17T10:01:55.048Z,37.03
2022-12-17T10:04:54.053Z,33.88
2022-12-17T10:07:52.142Z,33.50
2022-12-17T10:10:47.943Z,35.85
2022-12-17T10:13:42.511Z,32.75
2022-12-17T10:16:53.128Z,39.37
2022-12-17T10:19:51.377Z,43.13
2022-12-17T10:22:44.503Z,34.40
2022-12-17T10:25:38.884Z,42.35
2022-12-17T10:28:41.501Z,41.33
2022-12-17T10:31:39.010Z,45.17
2022-12-17T10:34:37.472Z,45.15
2022-12-17T10:37:46.461Z,43.50
2022-12-17T10:40:45.627Z,44.17
2022-12-17T10:43:59.079Z,46.45
2022-12-17T10:46:52.509Z,47.13
2022-12-17T10:49:44.540Z,40.47
2022-12-17T10:52:49.569Z,40.50
2022-12-17T10:55:49.656Z,39.78
2022-12-17T10:58:50.922Z,34.92
2022-12-17T11:01:44.616Z,40.53
2022-12-17T11:04:52.330Z,42.03
2022-12-17T11:07:56.149Z,37.60
2022-12-17T11:10:51.454Z,35.38
2022-12-17T11:13:51.588Z,37.38
2022-12-17T11:16:50.071Z,40.30
2022-12-17T11:20:05.135Z,36.90
2022-12-17T11:23:05.481Z,38.90
2022-12-17T11:26:38.954Z,37.45
2022-12-17T11:29:47.092Z,37.35
2022-12-17T11:33:13.679Z,44.53
2022-12-17T11:36:36.917Z,43.92
2022-12-17T11:39:47.732Z,42.90
2022-12-17T11:42:48.620Z,39.97
2022-12-17T11:46:19.436Z,34.75
2022-12-17T11:49:51.028Z,32.10
2022-12-17T11:56:54.784Z,39.75
2022-12-17T12:00:23.480Z,40.67
2022-12-17T12:04:24.789Z,36.70
2022-12-17T12:07:35.282Z,41.63
2022-12-17T12:10:36.284Z,34.38
2022-12-17T12:13:39.917Z,34.28
2022-12-17T12:16:43.956Z,33.88
2022-12-17T12:19:53.067Z,36.90
2022-12-17T12:23:06.313Z,35.37
2022-12-17T12:26:33.376Z,38.10
2022-12-17T12:29:55.328Z,34.65
2022-12-17T12:33:05.500Z,43.25
2022-12-17T12:36:00.570Z,40.42
2022-12-17T12:38:59.963Z,39.53
2022-12-17T12:42:44.384Z,42.20
2022-12-17T12:46:06.867Z,46.75
2022-12-17T12:49:22.896Z,39.92
2022-12-17T12:52:15.585Z,37.10
2022-12-17T12:55:06.093Z,38.40
2022-12-17T12:58:03.524Z,38.65
2022-12-17T13:01:14.947Z,38.63
2022-12-17T13:04:05.807Z,37.95
2022-12-17T13:06:54.602Z,35.88
2022-12-17T13:09:34.467Z,27.97
2022-12-17T13:12:32.409Z,40.60
2022-12-17T13:15:07.257Z,39.53
2022-12-17T13:18:07.534Z,38.38
2022-12-17T13:20:39.596Z,38.35
2022-12-17T13:23:12.210Z,36.63
2022-12-17T13:25:44.551Z,42.05
2022-12-17T13:28:29.859Z,43.58
2022-12-17T13:31:16.343Z,41.78
2022-12-17T13:33:54.029Z,46.30
2022-12-17T13:37:07.269Z,40.27
2022-12-17T13:40:02.534Z,40.90
2022-12-17T13:42:36.877Z,42.28
2022-12-17T13:45:20.076Z,37.78
2022-12-17T13:47:58.772Z,42.42
2022-12-17T13:50:34.354Z,47.23
2022-12-17T13:53:13.552Z,44.78
2022-12-17T13:55:51.556Z,47.60
2022-12-17T13:58:29.547Z,41.40
2022-12-17T14:01:12.801Z,48.45
2022-12-17T14:04:06.724Z,42.57
2022-12-17T14:06:39.234Z,40.08
2022-12-17T14:09:18.728Z,49.83
2022-12-17T14:12:10.041Z,51.67
2022-12-17T14:14:47.497Z,41.78
2022-12-17T14:17:26.116Z,44.83
2022-12-17T14:20:06.553Z,42.55
2022-12-17T14:22:50.772Z,43.00
2022-12-17T14:25:30.079Z,43.22
2022-12-17T14:28:29.027Z,40.50
2022-12-17T14:31:29.354Z,42.77
2022-12-17T14:34:11.159Z,44.17
2022-12-17T14:36:44.862Z,44.30
2022-12-17T14:39:31.987Z,228.75
2022-12-17T14:42:25.898Z,45.00
2022-12-17T14:45:07.692Z,49.57
2022-12-17T14:47:40.706Z,47.03
2022-12-17T14:50:12.618Z,43.67
2022-12-17T14:52:53.608Z,48.10
2022-12-17T14:55:58.734Z,50.25
2022-12-17T14:58:31.551Z,43.60
2022-12-17T15:01:13.200Z,50.33
2022-12-17T15:03:49.354Z,53.30
2022-12-17T15:06:22.652Z,49.28
2022-12-17T15:08:56.017Z,45.95
2022-12-17T15:11:29.687Z,43.73
2022-12-17T15:14:02.677Z,52.40
2022-12-17T15:16:35.110Z,49.70
2022-12-17T15:19:14.878Z,52.83
2022-12-17T15:21:47.448Z,55.35
2022-12-17T15:24:21.448Z,54.50
2022-12-17T15:26:53.744Z,54.88
2022-12-17T15:29:26.617Z,57.08
2022-12-17T15:31:59.753Z,55.47
2022-12-17T15:34:32.660Z,53.53
2022-12-17T15:37:05.751Z,53.83
2022-12-17T15:39:37.808Z,50.05
2022-12-17T15:42:29.513Z,57.03
2022-12-17T15:45:01.581Z,54.13
2022-12-17T15:47:33.900Z,59.65
2022-12-17T15:50:07.824Z,81.97
2022-12-17T15:52:40.589Z,53.25
2022-12-17T15:55:13.004Z,55.22
2022-12-17T15:57:45.075Z,63.88
2022-12-17T16:00:18.734Z,55.13
2022-12-17T16:02:51.568Z,57.17
2022-12-17T16:05:24.616Z,51.53
2022-12-17T16:07:59.226Z,54.92
2022-12-17T16:10:32.442Z,56.30
2022-12-17T16:13:05.192Z,91.38
2022-12-17T16:15:37.934Z,60.67
2022-12-17T16:18:10.102Z,65.75
2022-12-17T16:20:44.061Z,54.20
2022-12-17T16:23:17.151Z,58.80
2022-12-17T16:26:01.580Z,103.53
2022-12-17T16:28:36.627Z,62.00
2022-12-17T16:31:14.376Z,63.78
2022-12-17T16:33:48.384Z,159.55
2022-12-17T16:36:22.955Z,69.47
2022-12-17T16:38:55.752Z,70.88
2022-12-17T16:41:28.496Z,69.37
2022-12-17T16:44:01.456Z,96.40
2022-12-17T16:46:40.187Z,58.28
2022-12-17T16:49:19.561Z,54.92
2022-12-17T16:54:46.725Z,168.83
2022-12-17T16:57:18.642Z,53.40
2022-12-17T16:59:51.790Z,51.75
2022-12-17T17:02:24.355Z,54.83
2022-12-17T17:04:57.690Z,62.20
2022-12-17T17:07:30.060Z,62.47
2022-12-17T17:10:01.984Z,62.40
2022-12-17T17:12:34.805Z,48.97
2022-12-17T17:15:07.800Z,58.17
2022-12-17T17:17:54.029Z,61.92
2022-12-17T17:20:32.278Z,65.00
2022-12-17T17:23:05.544Z,52.33
2022-12-17T17:25:57.409Z,61.75
2022-12-17T17:28:30.374Z,58.92
2022-12-17T17:31:05.348Z,67.10
2022-12-17T17:33:41.377Z,60.40
2022-12-17T17:36:29.375Z,68.45
2022-12-17T17:39:02.986Z,67.15
2022-12-17T17:41:35.876Z,60.95
2022-12-17T17:44:11.645Z,67.53
2022-12-17T17:46:44.457Z,59.17
2022-12-17T17:49:17.505Z,61.80
2022-12-17T17:54:43.834Z,69.85
2022-12-17T17:57:16.716Z,63.63
2022-12-17T17:59:49.199Z,68.17
2022-12-17T18:02:21.453Z,66.70
2022-12-17T18:04:54.736Z,64.95
2022-12-17T18:07:27.493Z,67.80
2022-12-17T18:10:00.513Z,63.15
2022-12-17T18:12:50.756Z,57.63
2022-12-17T18:15:23.512Z,58.70
2022-12-17T18:17:55.382Z,60.45
2022-12-17T18:20:28.234Z,62.15
2022-12-17T18:23:00.341Z,54.42
2022-12-17T18:25:37.676Z,54.27
2022-12-17T18:28:09.906Z,61.85
2022-12-17T18:30:45.520Z,55.97
2022-12-17T18:33:17.569Z,64.80
2022-12-17T18:35:50.973Z,56.40
2022-12-17T18:38:23.032Z,57.87
2022-12-17T18:40:56.569Z,60.72
2022-12-17T18:43:28.642Z,116.93
2022-12-17T18:46:04.809Z,93.47
2022-12-17T18:48:37.995Z,61.35
2022-12-17T18:51:10.833Z,65.13
2022-12-17T18:53:43.832Z,73.68
2022-12-17T18:56:31.658Z,57.42
2022-12-17T18:59:13.322Z,49.25
2022-12-17T19:01:47.230Z,71.05
2022-12-17T19:04:21.618Z,56.77
2022-12-17T19:06:55.071Z,47.33
2022-12-17T19:09:38.410Z,63.30
2022-12-17T19:12:11.272Z,53.55
2022-12-17T19:14:43.730Z,72.43
2022-12-17T19:17:16.208Z,68.97
2022-12-17T19:19:48.476Z,68.90
2022-12-17T19:22:21.193Z,65.75
2022-12-17T19:24:53.738Z,68.30
2022-12-17T19:27:26.878Z,59.85
2022-12-17T19:29:58.823Z,65.03
2022-12-17T19:32:31.518Z,79.07
2022-12-17T19:35:04.005Z,72.22
2022-12-17T19:37:35.934Z,60.05
2022-12-17T19:40:09.849Z,56.30
2022-12-17T19:42:41.859Z,59.40
2022-12-17T19:45:15.882Z,53.33
2022-12-17T19:47:49.660Z,63.85
2022-12-17T19:50:21.570Z,63.17
2022-12-17T19:52:54.379Z,57.55
2022-12-17T19:55:26.348Z,55.17
2022-12-17T19:58:21.091Z,53.72
2022-12-17T20:00:53.057Z,53.53
2022-12-17T20:03:26.712Z,47.63
2022-12-17T20:05:59.381Z,56.67
2022-12-17T20:08:33.176Z,58.13
2022-12-17T20:11:26.486Z,62.55
2022-12-17T20:14:14.937Z,48.88
2022-12-17T20:16:54.124Z,56.78
2022-12-17T20:19:31.759Z,62.15
2022-12-17T20:22:05.267Z,59.20
2022-12-17T20:24:39.692Z,59.90
2022-12-17T20:27:11.623Z,61.33
2022-12-17T20:29:44.399Z,55.25
2022-12-17T20:32:19.291Z,49.33
2022-12-17T20:34:52.658Z,47.30
2022-12-17T20:37:24.987Z,54.22
2022-12-17T20:39:56.887Z,51.20
2022-12-17T20:42:32.559Z,59.35
2022-12-17T20:45:04.827Z,61.35
2022-12-17T20:47:40.459Z,145.70
2022-12-17T20:50:13.312Z,58.15
2022-12-17T20:52:45.229Z,58.63
2022-12-17T20:55:18.078Z,55.92
2022-12-17T20:57:50.302Z,59.63
2022-12-17T21:00:23.050Z,58.97
2022-12-17T21:02:59.929Z,51.28
2022-12-17T21:05:36.060Z,58.45
2022-12-17T21:08:08.462Z,60.95
2022-12-17T21:10:41.189Z,55.33
2022-12-17T21:13:31.121Z,56.13
2022-12-17T21:16:08.144Z,55.80
2022-12-17T21:18:41.122Z,58.65
2022-12-17T21:21:18.679Z,51.97
2022-12-17T21:23:51.464Z,61.50
2022-12-17T21:26:31.446Z,62.73
2022-12-17T21:29:06.068Z,49.53
2022-12-17T21:31:53.022Z,53.05
2022-12-17T21:34:29.054Z,53.42
2022-12-17T21:37:02.190Z,58.72
2022-12-17T21:39:34.520Z,58.07
2022-12-17T21:42:25.459Z,54.92
2022-12-17T21:44:57.828Z,54.20
2022-12-17T21:47:30.341Z,62.78
2022-12-17T21:50:03.167Z,56.00
2022-12-17T21:52:35.893Z,56.13
2022-12-17T21:55:08.574Z,55.22
2022-12-17T21:57:40.863Z,49.72
2022-12-17T22:00:14.369Z,52.97
2022-12-17T22:02:47.509Z,49.85
2022-12-17T22:05:23.577Z,51.70
2022-12-17T22:07:56.383Z,47.10
2022-12-17T22:10:36.783Z,51.08
2022-12-17T22:13:35.883Z,45.53
2022-12-17T22:16:09.024Z,48.80
2022-12-17T22:18:41.220Z,46.40
2022-12-17T22:21:14.164Z,50.03
2022-12-17T22:23:48.197Z,48.08
2022-12-17T22:26:21.714Z,50.67
2022-12-17T22:28:54.055Z,41.67
2022-12-17T22:31:46.061Z,51.33
2022-12-17T22:35:28.922Z,49.72
2022-12-17T22:40:06.150Z,49.67
2022-12-17T22:44:35.059Z,49.78
2022-12-17T22:44:42.341Z,53.13
2022-12-17T22:46:07.945Z,47.37
2022-12-17T22:48:40.978Z,55.45
2022-12-17T22:51:21.059Z,54.50
2022-12-17T22:54:06.448Z,61.63
2022-12-17T22:57:12.853Z,49.78
2022-12-17T22:59:33.930Z,53.77
2022-12-17T23:02:08.419Z,60.45
2022-12-17T23:04:42.456Z,63.03
2022-12-17T23:07:14.936Z,66.90
2022-12-17T23:09:47.093Z,60.40
2022-12-17T23:12:37.926Z,63.77
2022-12-17T23:15:10.673Z,60.30
2022-12-17T23:17:43.679Z,60.78
2022-12-17T23:20:16.935Z,58.78
2022-12-17T23:22:48.941Z,52.63
2022-12-17T23:25:23.758Z,59.50
2022-12-17T23:27:55.804Z,56.28
2022-12-17T23:30:28.591Z,57.60
2022-12-17T23:33:00.545Z,55.47
2022-12-17T23:35:33.268Z,53.17
2022-12-17T23:38:05.679Z,56.93
2022-12-17T23:40:37.580Z,47.88
2022-12-17T23:43:15.815Z,46.22
2022-12-17T23:45:49.804Z,60.20
2022-12-17T23:48:22.667Z,43.47
2022-12-17T23:50:54.549Z,43.27
2022-12-17T23:53:29.519Z,38.65
2022-12-17T23:56:32.588Z,39.42
2022-12-17T23:59:04.612Z,38.67
